Time;durP1;ratioP1;P1;durP2;ratioP2;P2;SDS_P1;SDS_P2;PMS_P1;PMS_P2;Temp;Humidity;BMP_temperature;BMP_pressure;BME280_temperature;BME280_humidity;BME280_pressure;Samples;Min_cycle;Max_cycle;Signal;HPM_P1;HPM_P2
2023/10/16 00:01:26;;;;;;;;;;;;;;;;;;5047070;28;19916;-60
2023/10/16 00:03:51;;;;;;;;;;;;;;;;;;5052725;28;19913;-59
2023/10/16 00:06:17;;;;;;;;;;;;;;;;;;5052714;28;19912;-59
2023/10/16 00:09:14;;;;;;;;;;;;;;;;;;5053981;28;20253;-59
2023/10/16 00:11:39;;;;;;;;;;;;;;;;;;5045287;28;19924;-59
2023/10/16 00:14:18;;;;;;;;;;;;;;;;;;5054177;28;19917;-59
2023/10/16 00:16:44;;;;;;;;;;;;;;;;;;5054009;28;19913;-60
2023/10/16 00:19:11;;;;;;;;;;;;;;;;;;5045277;28;19967;-60
2023/10/16 00:21:43;;;;;;;;;;;;;;;;;;5042115;28;19913;-59
2023/10/16 00:24:09;;;;;;;;;;;;;;;;;;5046775;28;19931;-59
2023/10/16 00:26:35;;;;;;;;;;;;;;;;;;5048761;28;20012;-59
2023/10/16 00:29:07;;;;;;;;;;;;;;;;;;5049490;28;20451;-59
2023/10/16 00:31:35;;;;;;;;;;;;;;;;;;5048072;28;19932;-61
2023/10/16 00:34:02;;;;;;;;;;;;;;;;;;5047115;28;19917;-61
2023/10/16 00:36:28;;;;;;;;;;;;;;;;;;5053759;28;20321;-61
2023/10/16 00:38:54;;;;;;;;;;;;;;;;;;5053681;28;19909;-61
2023/10/16 00:41:24;;;;;;;;;;;;;;;;;;5052716;28;20042;-61
2023/10/16 00:43:50;;;;;;;;;;;;;;;;;;5053595;28;19924;-61
2023/10/16 00:46:16;;;;;;;;;;;;;;;;;;5053661;28;19913;-61
2023/10/16 00:48:42;;;;;;;;;;;;;;;;;;5052889;28;19940;-61
2023/10/16 00:51:16;;;;;;;;;;;;;;;;;;5051481;28;20392;-58
2023/10/16 00:53:42;;;;;;;;;;;;;;;;;;5033891;28;19913;-58
2023/10/16 00:56:08;;;;;;;;;;;;;;;;;;5045270;28;19917;-58
2023/10/16 00:58:34;;;;;;;;;;;;;;;;;;5053647;28;20368;-57
2023/10/16 01:01:04;;;;;;;;;;;;;;;;;;5052631;28;19928;-58
2023/10/16 01:03:31;;;;;;;;;;;;;;;;;;5038935;28;19923;-58
2023/10/16 01:05:58;;;;;;;;;;;;;;;;;;5052651;28;20013;-57
2023/10/16 01:08:25;;;;;;;;;;;;;;;;;;5051501;28;19913;-56
2023/10/16 01:10:56;;;;;;;;;;;;;;;;;;5050525;28;20004;-58
2023/10/16 01:13:22;;;;;;;;;;;;;;;;;;5037965;28;19949;-58
2023/10/16 01:15:50;;;;;;;;;;;;;;;;;;5049397;28;19959;-57
2023/10/16 01:18:16;;;;;;;;;;;;;;;;;;5052990;28;20406;-57
2023/10/16 01:20:47;;;;;;;;;;;;;;;;;;5043297;28;20014;-57
2023/10/16 01:23:15;;;;;;;;;;;;;;;;;;5049635;28;20015;-57
2023/10/16 01:25:41;;;;;;;;;;;;;;;;;;5052799;28;19971;-57
2023/10/16 01:28:07;;;;;;;;;;;;;;;;;;5052534;28;19963;-57
2023/10/16 01:30:34;;;;;;;;;;;;;;;;;;5032506;28;19971;-57
2023/10/16 01:33:00;;;;;;;;;;;;;;;;;;5047292;28;19913;-57
2023/10/16 01:35:25;;;;;;;;;;;;;;;;;;5033050;28;20269;-59
2023/10/16 01:37:53;;;;;;;;;;;;;;;;;;5035794;28;19952;-57
2023/10/16 01:40:22;;;;;;;;;;;;;;;;;;5048733;28;19924;-57
2023/10/16 01:42:48;;;;;;;;;;;;;;;;;;5047195;28;19919;-61
2023/10/16 01:45:15;;;;;;;;;;;;;;;;;;5045217;28;20003;-61
2023/10/16 01:47:41;;;;;;;;;;;;;;;;;;5052656;28;19913;-61
2023/10/16 01:50:13;;;;;;;;;;;;;;;;;;5051126;28;19923;-61
2023/10/16 01:52:40;;;;;;;;;;;;;;;;;;5050928;28;19983;-61
2023/10/16 01:55:09;;;;;;;;;;;;;;;;;;5042908;28;20297;-61
2023/10/16 01:57:35;;;;;;;;;;;;;;;;;;5052614;28;19917;-61
2023/10/16 02:00:05;;;;;;;;;;;;;;;;;;5050641;28;20462;-61
2023/10/16 02:02:31;;;;;;;;;;;;;;;;;;5052672;28;20008;-59
2023/10/16 02:04:58;;;;;;;;;;;;;;;;;;5050360;28;20007;-59
2023/10/16 02:07:33;;;;;;;;;;;;;;;;;;5052444;28;19909;-59
2023/10/16 02:09:59;;;;;;;;;;;;;;;;;;5050270;28;20253;-59
2023/10/16 02:12:25;;;;;;;;;;;;;;;;;;5052248;28;19956;-59
2023/10/16 02:14:51;;;;;;;;;;;;;;;;;;5043195;28;19956;-59
2023/10/16 02:17:21;;;;;;;;;;;;;;;;;;5038142;28;20347;-58
2023/10/16 02:19:47;;;;;;;;;;;;;;;;;;5032121;28;19943;-59
2023/10/16 02:22:16;;;;;;;;;;;;;;;;;;5051607;28;19916;-60
2023/10/16 02:24:42;;;;;;;;;;;;;;;;;;5046697;28;20475;-59
2023/10/16 02:27:12;;;;;;;;;;;;;;;;;;5051274;28;19967;-60
2023/10/16 02:29:39;;;;;;;;;;;;;;;;;;5051331;28;19960;-59
2023/10/16 02:32:08;;;;;;;;;;;;;;;;;;5044318;28;20003;-59
2023/10/16 02:34:36;;;;;;;;;;;;;;;;;;5049706;28;19917;-59
2023/10/16 02:37:06;;;;;;;;;;;;;;;;;;5052048;28;19927;-59
2023/10/16 02:39:35;;;;;;;;;;;;;;;;;;5050911;28;19943;-59
2023/10/16 02:42:01;;;;;;;;;;;;;;;;;;5052174;28;19916;-59
2023/10/16 02:44:27;;;;;;;;;;;;;;;;;;5047472;28;19913;-59
2023/10/16 02:46:52;;;;;;;;;;;;;;;;;;5038078;28;19945;-60
2023/10/16 02:49:18;;;;;;;;;;;;;;;;;;5051655;28;20006;-59
2023/10/16 02:51:45;;;;;;;;;;;;;;;;;;5042179;28;20259;-59
2023/10/16 02:54:10;;;;;;;;;;;;;;;;;;5040174;28;19917;-60
2023/10/16 02:56:36;;;;;;;;;;;;;;;;;;5050639;28;20014;-59
2023/10/16 02:59:08;;;;;;;;;;;;;;;;;;5051492;28;20383;-59
2023/10/16 03:01:34;;;;;;;;;;;;;;;;;;5046510;28;19913;-59
2023/10/16 03:04:00;;;;;;;;;;;;;;;;;;5048525;28;19959;-59
2023/10/16 03:06:26;;;;;;;;;;;;;;;;;;5032826;28;19917;-59
2023/10/16 03:08:54;;;;;;;;;;;;;;;;;;5036927;28;20003;-59
2023/10/16 03:11:23;;;;;;;;;;;;;;;;;;5036421;28;20016;-59
2023/10/16 03:13:52;;;;;;;;;;;;;;;;;;5046780;28;20000;-59
2023/10/16 03:16:23;;;;;;;;;;;;;;;;;;5049063;28;19912;-59
2023/10/16 03:18:49;;;;;;;;;;;;;;;;;;5049743;28;19913;-59
2023/10/16 03:23:47;;;;;;;;;;;;;;;;;;5050052;28;20062;-62
2023/10/16 03:26:25;;;;;;;;;;;;;;;;;;5053727;28;19966;-59
2023/10/16 03:28:51;;;;;;;;;;;;;;;;;;5054841;28;20273;-59
2023/10/16 03:31:17;;;;;;;;;;;;;;;;;;5045347;28;20030;-59
2023/10/16 03:33:43;;;;;;;;;;;;;;;;;;5053473;28;20384;-59
2023/10/16 03:36:09;;;;;;;;;;;;;;;;;;5041880;28;20257;-59
2023/10/16 03:38:40;;;;;;;;;;;;;;;;;;5045381;28;19958;-59
2023/10/16 03:41:19;;;;;;;;;;;;;;;;;;5042843;28;20011;-59
2023/10/16 03:43:45;;;;;;;;;;;;;;;;;;5054745;28;20555;-59
2023/10/16 03:46:13;;;;;;;;;;;;;;;;;;5054222;28;19934;-59
2023/10/16 03:48:39;;;;;;;;;;;;;;;;;;5054932;28;19913;-59
2023/10/16 03:51:06;;;;;;;;;;;;;;;;;;5052841;28;19975;-59
2023/10/16 03:53:32;;;;;;;;;;;;;;;;;;5043338;28;19944;-59
2023/10/16 03:55:58;;;;;;;;;;;;;;;;;;5049606;28;19952;-59
2023/10/16 03:58:26;;;;;;;;;;;;;;;;;;5052299;28;20348;-59
2023/10/16 04:00:58;;;;;;;;;;;;;;;;;;5048731;28;19927;-59
2023/10/16 04:03:25;;;;;;;;;;;;;;;;;;5038743;28;19909;-57
2023/10/16 04:05:51;;;;;;;;;;;;;;;;;;5054138;28;19963;-57
2023/10/16 04:08:25;;;;;;;;;;;;;;;;;;5052674;28;19979;-57
2023/10/16 04:10:53;;;;;;;;;;;;;;;;;;5053637;28;19913;-57
2023/10/16 04:13:19;;;;;;;;;;;;;;;;;;5054837;28;19939;-56
2023/10/16 04:20:56;;;;;;;;;;;;;;;;;;5043758;28;19923;-57
2023/10/16 04:23:52;;;;;;;;;;;;;;;;;;5053712;28;19951;-59
2023/10/16 04:36:53;;;;;;;;;;;;;;;;;;5046799;28;19920;-59
2023/10/16 04:41:26;;;;;;;;;;;;;;;;;;5051214;28;19956;-59
2023/10/16 04:47:48;;;;;;;;;;;;;;;;;;5049386;28;19916;-59
2023/10/16 04:50:15;;;;;;;;;;;;;;;;;;5047700;28;20011;-59
2023/10/16 04:55:53;;;;;;;;;;;;;;;;;;5042993;28;20415;-59
2023/10/16 05:06:05;;;;;;;;;;;;;;;;;;5037085;28;19974;-59
2023/10/16 05:08:38;;;;;;;;;;;;;;;;;;5051393;28;19913;-59
2023/10/16 05:16:38;;;;;;;;;;;;;;;;;;5041294;28;19958;-57
2023/10/16 05:19:15;;;;;;;;;;;;;;;;;;5041897;28;19917;-57
2023/10/16 06:16:31;;;;;;;;;;;;;;;;;;5048776;28;20333;-59
2023/10/16 06:18:59;;;;;;;;;;;;;;;;;;5050430;28;20056;-59
2023/10/16 06:21:25;;;;;;;;;;;;;;;;;;5044571;28;20387;-59
2023/10/16 06:23:51;;;;;;;;;;;;;;;;;;5040554;28;19928;-59
2023/10/16 06:26:18;;;;;;;;;;;;;;;;;;5049270;28;19921;-57
2023/10/16 06:28:47;;;;;;;;;;;;;;;;;;5048152;28;19929;-59
2023/10/16 06:31:13;;;;;;;;;;;;;;;;;;5051192;28;19920;-60
2023/10/16 06:33:41;;;;;;;;;;;;;;;;;;5050868;28;19913;-60
2023/10/16 06:36:10;;;;;;;;;;;;;;;;;;5051418;28;20352;-59
2023/10/16 06:38:35;;;;;;;;;;;;;;;;;;5046975;28;19949;-59
2023/10/16 06:41:01;;;;;;;;;;;;;;;;;;5048392;28;20325;-59
2023/10/16 06:43:27;;;;;;;;;;;;;;;;;;5047967;28;19917;-61
2023/10/16 06:45:57;;;;;;;;;;;;;;;;;;5047467;28;19982;-61
2023/10/16 06:48:27;;;;;;;;;;;;;;;;;;5050410;28;20364;-61
2023/10/16 06:50:54;;;;;;;;;;;;;;;;;;5047400;28;19924;-63
2023/10/16 06:53:19;;;;;;;;;;;;;;;;;;5053414;28;20074;-61
2023/10/16 06:55:45;;;;;;;;;;;;;;;;;;5053709;28;20413;-61
2023/10/16 06:58:12;;;;;;;;;;;;;;;;;;5054718;28;19961;-61
2023/10/16 07:00:45;;;;;;;;;;;;;;;;;;5052568;28;19920;-60
2023/10/16 07:03:13;;;;;;;;;;;;;;;;;;5054595;28;19916;-61
2023/10/16 07:05:48;;;;;;;;;;;;;;;;;;5054823;28;20360;-61
2023/10/16 07:08:16;;;;;;;;;;;;;;;;;;5031518;28;19963;-61
2023/10/16 07:10:42;;;;;;;;;;;;;;;;;;5046771;28;19909;-61
2023/10/16 07:13:08;;;;;;;;;;;;;;;;;;5054320;28;19955;-61
2023/10/16 07:15:34;;;;;;;;;;;;;;;;;;5053491;28;19908;-60
2023/10/16 07:18:05;;;;;;;;;;;;;;;;;;5053752;28;19979;-61
2023/10/16 07:20:31;;;;;;;;;;;;;;;;;;5053785;28;20395;-65
2023/10/16 07:22:59;;;;;;;;;;;;;;;;;;5051273;28;19944;-61
2023/10/16 07:25:25;;;;;;;;;;;;;;;;;;5054206;28;19943;-61
2023/10/16 07:27:57;;;;;;;;;;;;;;;;;;5054507;28;20011;-61
2023/10/16 07:30:24;;;;;;;;;;;;;;;;;;5051907;28;19913;-60
2023/10/16 07:32:50;;;;;;;;;;;;;;;;;;5052750;28;19921;-59
2023/10/16 07:35:21;;;;;;;;;;;;;;;;;;5053804;28;20071;-58
2023/10/16 07:37:48;;;;;;;;;;;;;;;;;;5054472;28;19920;-57
2023/10/16 07:40:15;;;;;;;;;;;;;;;;;;5053580;28;19912;-57
2023/10/16 07:42:41;;;;;;;;;;;;;;;;;;5054232;28;19988;-57
2023/10/16 07:45:07;;;;;;;;;;;;;;;;;;5053800;28;20112;-60
2023/10/16 07:47:33;;;;;;;;;;;;;;;;;;5051829;28;19960;-58
2023/10/16 07:50:00;;;;;;;;;;;;;;;;;;5051738;28;20004;-58
2023/10/16 07:52:28;;;;;;;;;;;;;;;;;;5048033;28;19923;-56
2023/10/16 07:54:54;;;;;;;;;;;;;;;;;;5053886;28;20008;-59
2023/10/16 07:57:21;;;;;;;;;;;;;;;;;;5053619;28;19991;-59
2023/10/16 07:59:47;;;;;;;;;;;;;;;;;;5053304;28;19996;-58
2023/10/16 08:02:17;;;;;;;;;;;;;;;;;;5050947;28;19942;-61
2023/10/16 08:04:43;;;;;;;;;;;;;;;;;;5050970;28;19924;-59
2023/10/16 08:07:16;;;;;;;;;;;;;;;;;;5052594;28;20284;-59
2023/10/16 08:12:34;;;;;;;;;;;;;;;;;;5053410;28;20009;-57
2023/10/16 08:15:03;;;;;;;;;;;;;;;;;;5053609;28;19913;-58
2023/10/16 08:17:32;;;;;;;;;;;;;;;;;;5053221;28;19920;-59
2023/10/16 08:19:58;;;;;;;;;;;;;;;;;;5052945;28;20258;-57
2023/10/16 08:22:25;;;;;;;;;;;;;;;;;;5047297;28;19919;-59
2023/10/16 08:24:57;;;;;;;;;;;;;;;;;;5051817;28;20265;-58
2023/10/16 08:27:40;;;;;;;;;;;;;;;;;;5052941;28;19959;-58
2023/10/16 08:30:17;;;;;;;;;;;;;;;;;;5052876;28;19952;-59
2023/10/16 08:32:53;;;;;;;;;;;;;;;;;;5053131;28;19995;-59
2023/10/16 08:35:19;;;;;;;;;;;;;;;;;;5041902;28;19917;-59
2023/10/16 08:37:56;;;;;;;;;;;;;;;;;;5049126;28;19916;-56
2023/10/16 08:40:24;;;;;;;;;;;;;;;;;;5051486;28;19968;-57
2023/10/16 08:42:49;;;;;;;;;;;;;;;;;;5051943;28;19967;-61
2023/10/16 08:45:23;;;;;;;;;;;;;;;;;;5052235;28;20396;-61
2023/10/16 08:47:49;;;;;;;;;;;;;;;;;;5047637;28;19920;-61
2023/10/16 08:50:24;;;;;;;;;;;;;;;;;;5048026;28;19923;-61
2023/10/16 08:52:51;;;;;;;;;;;;;;;;;;5051391;28;19935;-61
2023/10/16 08:55:17;;;;;;;;;;;;;;;;;;5051078;28;20384;-58
2023/10/16 08:57:43;;;;;;;;;;;;;;;;;;5051921;28;19955;-59
2023/10/16 09:00:14;;;;;;;;;;;;;;;;;;5051930;28;19960;-61
2023/10/16 09:02:40;;;;;;;;;;;;;;;;;;5050041;28;19923;-61
2023/10/16 09:05:08;;;;;;;;;;;;;;;;;;5052729;28;19965;-59
2023/10/16 09:07:34;;;;;;;;;;;;;;;;;;5050737;28;20015;-59
2023/10/16 09:10:02;;;;;;;;;;;;;;;;;;5050071;28;19917;-59
2023/10/16 09:12:28;;;;;;;;;;;;;;;;;;5052231;28;19909;-59
2023/10/16 09:14:53;;;;;;;;;;;;;;;;;;5051956;28;19909;-62
2023/10/16 09:17:20;;;;;;;;;;;;;;;;;;5051764;28;19917;-61
2023/10/16 09:19:48;;;;;;;;;;;;;;;;;;5052130;28;19924;-61
2023/10/16 09:22:15;;;;;;;;;;;;;;;;;;5052089;28;19917;-61
2023/10/16 09:24:44;;;;;;;;;;;;;;;;;;5050380;28;20404;-62
2023/10/16 09:27:17;;;;;;;;;;;;;;;;;;5046809;28;19912;-62
2023/10/16 09:29:42;;;;;;;;;;;;;;;;;;5049524;28;19928;-60
2023/10/16 09:32:10;;;;;;;;;;;;;;;;;;5050935;28;19916;-59
2023/10/16 09:34:36;;;;;;;;;;;;;;;;;;5048897;28;20453;-59
2023/10/16 09:37:15;;;;;;;;;;;;;;;;;;5051196;28;19913;-61
2023/10/16 09:39:40;;;;;;;;;;;;;;;;;;5051373;28;19913;-60
2023/10/16 09:42:12;;;;;;;;;;;;;;;;;;5051441;28;19913;-59
2023/10/16 09:44:38;;;;;;;;;;;;;;;;;;5045682;28;19913;-59
2023/10/16 09:47:48;;;;;;;;;;;;;;;;;;5050880;28;19924;-61
2023/10/16 09:49:58;;;;;;;;;;;;;;;;;;5045011;28;19916;-59
2023/10/16 09:52:24;;;;;;;;;;;;;;;;;;5049300;28;19921;-59
2023/10/16 09:54:50;;;;;;;;;;;;;;;;;;5045682;28;19994;-59
2023/10/16 09:57:16;;;;;;;;;;;;;;;;;;5048689;28;19917;-59
2023/10/16 09:59:43;;;;;;;;;;;;;;;;;;5050909;28;19920;-59
2023/10/16 10:02:09;;;;;;;;;;;;;;;;;;5050311;28;19917;-59
2023/10/16 10:04:35;;;;;;;;;;;;;;;;;;5050761;28;19978;-59
2023/10/16 10:07:01;;;;;;;;;;;;;;;;;;5051497;28;19920;-59
2023/10/16 10:09:42;;;;;;;;;;;;;;;;;;5049290;28;20368;-57
2023/10/16 10:12:16;;;;;;;;;;;;;;;;;;5051521;28;19951;-61
2023/10/16 10:14:48;;;;;;;;;;;;;;;;;;5039090;28;20349;-61
2023/10/16 10:17:19;;;;;;;;;;;;;;;;;;5047287;28;19920;-61
2023/10/16 10:19:46;;;;;;;;;;;;;;;;;;5049245;28;19917;-61
2023/10/16 10:22:17;;;;;;;;;;;;;;;;;;5047863;28;20229;-61
2023/10/16 10:24:43;;;;;;;;;;;;;;;;;;5047853;28;19927;-61
2023/10/16 10:27:11;;;;;;;;;;;;;;;;;;5054038;28;19970;-61
2023/10/16 10:29:37;;;;;;;;;;;;;;;;;;5055073;28;19944;-61
2023/10/16 10:32:03;;;;;;;;;;;;;;;;;;5054974;28;19956;-60
2023/10/16 10:34:29;;;;;;;;;;;;;;;;;;5046416;28;20292;-61
2023/10/16 10:36:57;;;;;;;;;;;;;;;;;;5051374;28;20003;-61
2023/10/16 10:42:03;;;;;;;;;;;;;;;;;;5054478;28;20384;-59
2023/10/16 10:44:29;;;;;;;;;;;;;;;;;;5044263;28;19917;-61
2023/10/16 10:46:55;;;;;;;;;;;;;;;;;;5051555;28;20755;-61
2023/10/16 10:49:21;;;;;;;;;;;;;;;;;;5051623;28;19913;-61
2023/10/16 10:51:50;;;;;;;;;;;;;;;;;;5050595;28;19920;-61
2023/10/16 10:54:20;;;;;;;;;;;;;;;;;;5052298;28;19913;-61
2023/10/16 10:56:50;;;;;;;;;;;;;;;;;;5054531;28;19966;-60
2023/10/16 10:59:17;;;;;;;;;;;;;;;;;;5050990;28;19982;-61
2023/10/16 11:02:08;;;;;;;;;;;;;;;;;;5051689;28;19925;-61
2023/10/16 11:04:34;;;;;;;;;;;;;;;;;;5053618;28;20003;-60
2023/10/16 11:07:11;;;;;;;;;;;;;;;;;;5048436;28;20047;-61
2023/10/16 11:09:38;;;;;;;;;;;;;;;;;;5048068;28;20011;-61
2023/10/16 11:12:04;;;;;;;;;;;;;;;;;;5053059;28;20261;-61
2023/10/16 11:14:30;;;;;;;;;;;;;;;;;;5053691;28;19940;-61
2023/10/16 11:16:56;;;;;;;;;;;;;;;;;;5052633;28;19966;-61
2023/10/16 11:19:29;;;;;;;;;;;;;;;;;;5054274;28;19913;-61
2023/10/16 11:22:00;;;;;;;;;;;;;;;;;;5054479;28;19912;-61
2023/10/16 11:24:25;;;;;;;;;;;;;;;;;;5061629;28;20106;-60
2023/10/16 11:26:51;;;;;;;;;;;;;;;;;;5052207;28;20006;-60
2023/10/16 11:29:19;;;;;;;;;;;;;;;;;;5052362;28;19951;-60
2023/10/16 11:31:44;;;;;;;;;;;;;;;;;;5054243;28;19909;-58
2023/10/16 11:34:13;;;;;;;;;;;;;;;;;;5054078;28;19920;-60
2023/10/16 11:36:39;;;;;;;;;;;;;;;;;;5053917;28;20288;-60
2023/10/16 11:39:10;;;;;;;;;;;;;;;;;;5048456;28;19921;-60
2023/10/16 11:41:36;;;;;;;;;;;;;;;;;;5052386;28;19961;-60
2023/10/16 11:44:09;;;;;;;;;;;;;;;;;;5045918;28;20344;-61
2023/10/16 11:46:39;;;;;;;;;;;;;;;;;;5049005;28;20371;-60
2023/10/16 11:51:45;;;;;;;;;;;;;;;;;;5053431;28;19920;-60
2023/10/16 11:54:11;;;;;;;;;;;;;;;;;;5053478;28;19920;-60
2023/10/16 11:56:37;;;;;;;;;;;;;;;;;;5046028;28;19960;-60
2023/10/16 11:59:03;;;;;;;;;;;;;;;;;;5053317;28;20405;-59
2023/10/16 12:01:30;;;;;;;;;;;;;;;;;;5052536;28;19997;-60
2023/10/16 12:03:56;;;;;;;;;;;;;;;;;;5051994;28;20032;-60
2023/10/16 12:06:22;;;;;;;;;;;;;;;;;;5053544;28;19996;-60
2023/10/16 12:08:48;;;;;;;;;;;;;;;;;;5052968;28;20042;-60
2023/10/16 12:11:14;;;;;;;;;;;;;;;;;;5052413;28;19917;-63
2023/10/16 12:13:40;;;;;;;;;;;;;;;;;;5052818;28;19912;-63
2023/10/16 12:16:06;;;;;;;;;;;;;;;;;;5050449;28;19916;-63
2023/10/16 12:18:32;;;;;;;;;;;;;;;;;;5049003;28;19971;-64
2023/10/16 12:21:08;;;;;;;;;;;;;;;;;;5051415;28;19956;-63
2023/10/16 12:23:34;;;;;;;;;;;;;;;;;;5052464;28;19925;-63
2023/10/16 12:26:00;;;;;;;;;;;;;;;;;;5053225;28;19920;-62
2023/10/16 12:28:25;;;;;;;;;;;;;;;;;;5047836;28;19956;-63
2023/10/16 12:30:51;;;;;;;;;;;;;;;;;;5047109;28;19948;-63
2023/10/16 12:33:17;;;;;;;;;;;;;;;;;;5050676;28;20368;-61
2023/10/16 12:35:43;;;;;;;;;;;;;;;;;;5047851;28;19979;-61
2023/10/16 12:38:10;;;;;;;;;;;;;;;;;;5050073;28;19994;-61
2023/10/16 12:40:39;;;;;;;;;;;;;;;;;;5052036;28;19924;-61
2023/10/16 12:43:08;;;;;;;;;;;;;;;;;;5048228;28;19921;-61
2023/10/16 12:45:34;;;;;;;;;;;;;;;;;;5052161;28;20293;-61
2023/10/16 12:48:00;;;;;;;;;;;;;;;;;;5052032;28;20412;-62
2023/10/16 12:50:27;;;;;;;;;;;;;;;;;;5056957;28;20011;-61
2023/10/16 12:52:53;;;;;;;;;;;;;;;;;;5055613;28;19940;-61
2023/10/16 12:55:25;;;;;;;;;;;;;;;;;;5052686;28;19951;-61
2023/10/16 12:57:50;;;;;;;;;;;;;;;;;;5050097;28;19966;-61
2023/10/16 13:00:18;;;;;;;;;;;;;;;;;;5043152;28;19935;-62
2023/10/16 13:02:45;;;;;;;;;;;;;;;;;;5048152;28;20360;-61
2023/10/16 13:05:13;;;;;;;;;;;;;;;;;;5046464;28;19917;-61
2023/10/16 13:07:41;;;;;;;;;;;;;;;;;;5051243;28;19923;-61
2023/10/16 13:10:08;;;;;;;;;;;;;;;;;;5045220;28;19924;-61
2023/10/16 13:12:36;;;;;;;;;;;;;;;;;;5046898;28;19928;-60
2023/10/16 13:15:02;;;;;;;;;;;;;;;;;;5047712;28;20392;-61
2023/10/16 13:17:28;;;;;;;;;;;;;;;;;;5051043;28;19948;-61
2023/10/16 13:19:55;;;;;;;;;;;;;;;;;;5051053;28;19921;-60
2023/10/16 13:22:22;;;;;;;;;;;;;;;;;;5047131;28;19923;-60
2023/10/16 13:24:48;;;;;;;;;;;;;;;;;;5051607;28;19924;-60
2023/10/16 13:27:16;;;;;;;;;;;;;;;;;;5049952;28;20443;-60
2023/10/16 13:29:43;;;;;;;;;;;;;;;;;;5049107;28;19960;-61
2023/10/16 13:32:09;;;;;;;;;;;;;;;;;;5049409;28;19978;-60
2023/10/16 13:34:36;;;;;;;;;;;;;;;;;;5045657;28;20109;-60
2023/10/16 13:37:08;;;;;;;;;;;;;;;;;;5047039;28;19920;-60
2023/10/16 13:39:38;;;;;;;;;;;;;;;;;;5048643;28;20376;-60
2023/10/16 13:42:08;;;;;;;;;;;;;;;;;;5049293;28;19917;-59
2023/10/16 13:44:35;;;;;;;;;;;;;;;;;;5049124;28;19917;-59
2023/10/16 13:47:04;;;;;;;;;;;;;;;;;;5047305;28;19917;-61
2023/10/16 13:49:30;;;;;;;;;;;;;;;;;;5049478;28;19916;-59
2023/10/16 13:51:57;;;;;;;;;;;;;;;;;;5048161;28;21017;-60
2023/10/16 13:54:24;;;;;;;;;;;;;;;;;;5045304;28;20373;-59
2023/10/16 13:56:50;;;;;;;;;;;;;;;;;;5043862;28;19920;-61
2023/10/16 13:59:18;;;;;;;;;;;;;;;;;;5046052;28;19956;-59
2023/10/16 14:01:44;;;;;;;;;;;;;;;;;;5040387;28;19921;-59
2023/10/16 14:04:21;;;;;;;;;;;;;;;;;;5049269;28;19916;-59
2023/10/16 14:06:51;;;;;;;;;;;;;;;;;;5046301;28;20377;-59
2023/10/16 14:09:32;;;;;;;;;;;;;;;;;;5051734;28;20509;-59
2023/10/16 14:11:58;;;;;;;;;;;;;;;;;;5052671;28;20003;-59
2023/10/16 14:14:24;;;;;;;;;;;;;;;;;;5049540;28;20004;-58
2023/10/16 14:16:50;;;;;;;;;;;;;;;;;;5050956;28;19959;-60
2023/10/16 14:19:16;;;;;;;;;;;;;;;;;;5049312;28;20012;-61
2023/10/16 14:21:43;;;;;;;;;;;;;;;;;;5047169;28;20324;-59
2023/10/16 14:24:09;;;;;;;;;;;;;;;;;;5044575;28;19921;-59
2023/10/16 14:26:36;;;;;;;;;;;;;;;;;;5043578;28;19913;-59
2023/10/16 14:29:03;;;;;;;;;;;;;;;;;;5042745;28;19932;-59
2023/10/16 14:31:30;;;;;;;;;;;;;;;;;;5043679;28;20361;-61
2023/10/16 14:33:58;;;;;;;;;;;;;;;;;;5047616;28;19923;-61
2023/10/16 14:36:29;;;;;;;;;;;;;;;;;;5046757;28;19912;-61
2023/10/16 14:38:55;;;;;;;;;;;;;;;;;;5045863;28;19920;-64
2023/10/16 14:41:23;;;;;;;;;;;;;;;;;;5043485;28;19978;-61
2023/10/16 14:43:50;;;;;;;;;;;;;;;;;;5048775;28;20340;-61
2023/10/16 14:46:17;;;;;;;;;;;;;;;;;;5050573;28;20324;-61
2023/10/16 14:48:43;;;;;;;;;;;;;;;;;;5042433;28;19913;-61
2023/10/16 14:51:12;;;;;;;;;;;;;;;;;;5049215;28;19927;-60
2023/10/16 14:53:39;;;;;;;;;;;;;;;;;;5046238;28;19975;-59
2023/10/16 14:56:06;;;;;;;;;;;;;;;;;;5041666;28;19964;-58
2023/10/16 14:58:34;;;;;;;;;;;;;;;;;;5040131;28;19913;-58
2023/10/16 15:01:09;;;;;;;;;;;;;;;;;;5042718;28;20446;-60
2023/10/16 15:03:38;;;;;;;;;;;;;;;;;;5045761;28;20365;-59
2023/10/16 15:06:04;;;;;;;;;;;;;;;;;;5046981;28;19963;-60
2023/10/16 15:08:30;;;;;;;;;;;;;;;;;;5048069;28;20269;-60
2023/10/16 15:10:58;;;;;;;;;;;;;;;;;;5046963;28;19937;-59
2023/10/16 15:13:27;;;;;;;;;;;;;;;;;;5051286;28;19936;-59
2023/10/16 15:15:53;;;;;;;;;;;;;;;;;;5052019;28;20261;-59
2023/10/16 15:18:19;;;;;;;;;;;;;;;;;;5051982;28;19913;-59
2023/10/16 15:20:45;;;;;;;;;;;;;;;;;;5050514;28;19917;-60
2023/10/16 15:23:11;;;;;;;;;;;;;;;;;;5048989;28;19959;-59
2023/10/16 15:25:37;;;;;;;;;;;;;;;;;;5046156;28;20391;-59
2023/10/16 15:28:03;;;;;;;;;;;;;;;;;;5050331;28;19963;-58
2023/10/16 15:30:31;;;;;;;;;;;;;;;;;;5048985;28;21553;-59
2023/10/16 15:33:00;;;;;;;;;;;;;;;;;;5048853;28;20551;-59
2023/10/16 15:35:26;;;;;;;;;;;;;;;;;;5050040;28;19921;-59
2023/10/16 15:37:52;;;;;;;;;;;;;;;;;;5047631;28;20019;-59
2023/10/16 15:40:18;;;;;;;;;;;;;;;;;;5050684;28;19963;-59
2023/10/16 15:42:48;;;;;;;;;;;;;;;;;;5049043;28;19921;-61
2023/10/16 15:45:14;;;;;;;;;;;;;;;;;;5055122;28;19915;-60
2023/10/16 15:47:42;;;;;;;;;;;;;;;;;;5053544;28;20276;-61
2023/10/16 15:50:10;;;;;;;;;;;;;;;;;;5045408;28;19921;-60
2023/10/16 15:52:36;;;;;;;;;;;;;;;;;;5044057;28;19956;-60
2023/10/16 15:55:02;;;;;;;;;;;;;;;;;;5047690;28;19917;-60
2023/10/16 15:57:30;;;;;;;;;;;;;;;;;;5044390;28;19945;-60
2023/10/16 15:59:56;;;;;;;;;;;;;;;;;;5048754;28;20284;-61
2023/10/16 16:02:21;;;;;;;;;;;;;;;;;;5047680;28;19947;-62
2023/10/16 16:04:53;;;;;;;;;;;;;;;;;;5043485;28;19948;-62
2023/10/16 16:07:19;;;;;;;;;;;;;;;;;;5052320;28;19964;-62
2023/10/16 16:09:47;;;;;;;;;;;;;;;;;;5051232;28;19932;-62
2023/10/16 16:12:14;;;;;;;;;;;;;;;;;;5050193;28;19912;-62
2023/10/16 16:14:42;;;;;;;;;;;;;;;;;;5050413;28;19913;-62
2023/10/16 16:17:09;;;;;;;;;;;;;;;;;;5046874;28;21910;-62
2023/10/16 16:19:35;;;;;;;;;;;;;;;;;;5043863;28;19947;-63
2023/10/16 16:22:01;;;;;;;;;;;;;;;;;;5037122;28;19948;-62
2023/10/16 16:24:26;;;;;;;;;;;;;;;;;;5047585;28;19946;-62
2023/10/16 16:26:52;;;;;;;;;;;;;;;;;;5050971;28;20003;-62
2023/10/16 16:29:18;;;;;;;;;;;;;;;;;;5050643;28;19964;-62
2023/10/16 16:31:44;;;;;;;;;;;;;;;;;;5039954;28;19921;-62
2023/10/16 16:34:10;;;;;;;;;;;;;;;;;;5043574;28;20379;-62
2023/10/16 16:36:40;;;;;;;;;;;;;;;;;;5043823;28;19920;-62
2023/10/16 16:39:12;;;;;;;;;;;;;;;;;;5048512;28;19917;-63
2023/10/16 16:41:38;;;;;;;;;;;;;;;;;;5027620;28;20362;-63
2023/10/16 16:44:04;;;;;;;;;;;;;;;;;;5050168;28;19991;-62
2023/10/16 16:46:30;;;;;;;;;;;;;;;;;;5052793;28;20040;-62
2023/10/16 16:49:00;;;;;;;;;;;;;;;;;;5045519;28;19974;-63
2023/10/16 16:51:26;;;;;;;;;;;;;;;;;;5030892;28;19982;-62
2023/10/16 16:53:52;;;;;;;;;;;;;;;;;;5046746;28;19913;-63
2023/10/16 16:56:18;;;;;;;;;;;;;;;;;;5043526;28;19940;-63
2023/10/16 16:58:44;;;;;;;;;;;;;;;;;;5050779;28;19921;-62
2023/10/16 17:01:10;;;;;;;;;;;;;;;;;;5050406;28;20429;-62
2023/10/16 17:03:36;;;;;;;;;;;;;;;;;;5052128;28;19912;-62
2023/10/16 17:06:02;;;;;;;;;;;;;;;;;;5049067;28;20341;-62
2023/10/16 17:08:28;;;;;;;;;;;;;;;;;;5045795;28;20003;-63
2023/10/16 17:10:55;;;;;;;;;;;;;;;;;;5048501;28;20005;-62
2023/10/16 17:13:21;;;;;;;;;;;;;;;;;;5044058;28;20010;-62
2023/10/16 17:15:47;;;;;;;;;;;;;;;;;;5052125;28;20035;-63
2023/10/16 17:18:15;;;;;;;;;;;;;;;;;;5044639;28;19971;-63
2023/10/16 17:20:41;;;;;;;;;;;;;;;;;;5045700;28;20025;-62
2023/10/16 17:23:07;;;;;;;;;;;;;;;;;;5050071;28;20399;-62
2023/10/16 17:25:34;;;;;;;;;;;;;;;;;;5050983;28;19966;-63
2023/10/16 17:28:00;;;;;;;;;;;;;;;;;;5051795;28;20372;-62
2023/10/16 17:30:26;;;;;;;;;;;;;;;;;;5051248;28;19908;-63
2023/10/16 17:32:52;;;;;;;;;;;;;;;;;;5051292;28;20297;-63
2023/10/16 17:35:23;;;;;;;;;;;;;;;;;;5042927;28;19924;-62
2023/10/16 17:37:49;;;;;;;;;;;;;;;;;;5049563;28;19948;-62
2023/10/16 17:40:15;;;;;;;;;;;;;;;;;;5043652;28;19919;-63
2023/10/16 17:42:42;;;;;;;;;;;;;;;;;;5050932;28;19944;-62
2023/10/16 17:45:11;;;;;;;;;;;;;;;;;;5035540;28;19966;-63
2023/10/16 17:47:37;;;;;;;;;;;;;;;;;;5045834;28;19948;-62
2023/10/16 17:50:03;;;;;;;;;;;;;;;;;;5041305;28;20015;-63
2023/10/16 17:52:33;;;;;;;;;;;;;;;;;;5049850;28;19955;-62
2023/10/16 17:54:59;;;;;;;;;;;;;;;;;;5048043;28;19913;-62
2023/10/16 17:57:25;;;;;;;;;;;;;;;;;;5051518;28;19932;-62
2023/10/16 17:59:51;;;;;;;;;;;;;;;;;;5042567;28;19945;-63
2023/10/16 18:02:17;;;;;;;;;;;;;;;;;;5047680;28;20316;-62
2023/10/16 18:04:43;;;;;;;;;;;;;;;;;;5050412;28;19948;-63
2023/10/16 18:07:09;;;;;;;;;;;;;;;;;;5049666;28;20008;-63
2023/10/16 18:09:35;;;;;;;;;;;;;;;;;;5045840;28;19916;-63
2023/10/16 18:12:03;;;;;;;;;;;;;;;;;;5047892;28;19929;-60
2023/10/16 18:14:29;;;;;;;;;;;;;;;;;;5050904;28;20648;-60
2023/10/16 18:16:59;;;;;;;;;;;;;;;;;;5041808;28;19920;-60
2023/10/16 18:19:25;;;;;;;;;;;;;;;;;;5045368;28;20350;-60
2023/10/16 18:21:51;;;;;;;;;;;;;;;;;;5044092;28;19959;-59
2023/10/16 18:24:19;;;;;;;;;;;;;;;;;;5046744;28;20008;-60
2023/10/16 18:26:47;;;;;;;;;;;;;;;;;;5044590;28;20377;-60
2023/10/16 18:29:13;;;;;;;;;;;;;;;;;;5047950;28;19988;-60
2023/10/16 18:31:39;;;;;;;;;;;;;;;;;;5047491;28;20396;-59
2023/10/16 18:34:06;;;;;;;;;;;;;;;;;;5046654;28;19919;-59